createdAt,value
2023-01-29T00:00:15.457Z,14.68
2023-01-29T00:03:18.146Z,16.67
2023-01-29T00:06:20.725Z,17.25
2023-01-29T00:09:23.147Z,15.07
2023-01-29T00:12:25.773Z,14.83
2023-01-29T00:15:28.220Z,18.70
2023-01-29T00:18:31.375Z,12.65
2023-01-29T00:21:33.818Z,19.40
2023-01-29T00:24:36.237Z,13.52
2023-01-29T00:27:38.754Z,15.90
2023-01-29T00:30:41.808Z,16.20
2023-01-29T00:33:44.376Z,18.65
2023-01-29T00:36:47.423Z,15.77
2023-01-29T00:39:49.892Z,16.30
2023-01-29T00:43:11.604Z,11.40
2023-01-29T00:46:14.387Z,11.98
2023-01-29T00:49:17.203Z,12.60
2023-01-29T00:52:25.618Z,9.23
2023-01-29T00:55:28.118Z,13.07
2023-01-29T00:58:34.344Z,9.47
2023-01-29T01:01:56.007Z,11.10
2023-01-29T01:04:58.600Z,9.10
2023-01-29T01:08:00.977Z,7.97
2023-01-29T01:11:05.977Z,9.20
2023-01-29T01:14:08.958Z,8.37
2023-01-29T01:17:11.391Z,7.55
2023-01-29T01:20:15.011Z,10.93
2023-01-29T01:23:21.262Z,10.48
2023-01-29T01:26:23.722Z,7.25
2023-01-29T01:29:26.160Z,7.43
2023-01-29T01:32:28.784Z,6.68
2023-01-29T01:35:31.195Z,9.73
2023-01-29T01:38:33.617Z,7.63
2023-01-29T01:41:36.037Z,6.45
2023-01-29T01:45:01.283Z,9.97
2023-01-29T01:48:17.265Z,8.95
2023-01-29T01:51:20.751Z,4.50
2023-01-29T01:54:28.637Z,6.30
2023-01-29T01:57:31.471Z,6.93
2023-01-29T02:00:34.327Z,5.73
2023-01-29T02:04:03.313Z,6.85
2023-01-29T02:07:26.315Z,7.15
2023-01-29T02:10:30.163Z,7.57
2023-01-29T02:13:32.569Z,5.97
2023-01-29T02:16:36.842Z,8.87
2023-01-29T02:19:45.558Z,6.78
2023-01-29T02:22:55.403Z,9.50
2023-01-29T02:26:20.941Z,8.35
2023-01-29T02:29:30.567Z,7.20
2023-01-29T02:32:42.093Z,9.27
2023-01-29T02:35:56.764Z,8.43
2023-01-29T02:39:11.451Z,5.95
2023-01-29T02:42:28.684Z,7.85
2023-01-29T02:45:43.675Z,11.07
2023-01-29T02:48:55.686Z,6.67
2023-01-29T02:52:11.967Z,8.25
2023-01-29T02:55:18.689Z,7.78
2023-01-29T02:58:35.807Z,9.50
2023-01-29T03:01:48.794Z,10.05
2023-01-29T03:04:55.746Z,8.83
2023-01-29T03:08:10.217Z,9.90
2023-01-29T03:11:14.507Z,9.23
2023-01-29T03:14:57.031Z,7.28
2023-01-29T03:18:09.263Z,8.63
2023-01-29T03:21:36.097Z,9.03
2023-01-29T03:25:03.979Z,10.13
2023-01-29T03:28:28.634Z,9.23
2023-01-29T03:31:51.109Z,8.77
2023-01-29T03:34:58.771Z,7.15
2023-01-29T03:38:04.642Z,13.10
2023-01-29T03:41:20.728Z,5.30
2023-01-29T03:44:41.484Z,9.38
2023-01-29T03:48:00.246Z,10.60
2023-01-29T03:51:17.835Z,7.80
2023-01-29T03:54:28.300Z,7.40
2023-01-29T03:57:47.593Z,8.32
2023-01-29T04:01:05.013Z,6.38
2023-01-29T04:04:25.247Z,6.70
2023-01-29T04:07:33.307Z,10.23
2023-01-29T04:10:39.572Z,8.63
2023-01-29T04:13:43.294Z,10.52
2023-01-29T04:16:50.323Z,8.77
2023-01-29T04:20:16.748Z,10.13
2023-01-29T04:23:25.236Z,8.82
2023-01-29T04:26:28.142Z,10.20
2023-01-29T04:29:48.695Z,10.27
2023-01-29T04:33:02.652Z,10.13
2023-01-29T04:36:27.572Z,8.07
2023-01-29T04:39:55.355Z,8.35
2023-01-29T04:43:10.121Z,7.63
2023-01-29T04:46:15.379Z,8.20
2023-01-29T04:50:13.719Z,7.00
2023-01-29T04:53:37.737Z,7.85
2023-01-29T04:56:51.559Z,8.05
2023-01-29T05:00:18.091Z,7.20
2023-01-29T05:03:23.758Z,7.32
2023-01-29T05:06:26.689Z,8.27
2023-01-29T05:09:29.616Z,6.88
2023-01-29T05:12:33.314Z,4.18
2023-01-29T05:15:39.479Z,4.53
2023-01-29T05:18:42.541Z,4.35
2023-01-29T05:21:47.693Z,6.13
2023-01-29T05:24:50.959Z,4.10
2023-01-29T05:28:11.973Z,4.68
2023-01-29T05:31:15.334Z,5.27
2023-01-29T05:34:18.214Z,5.13
2023-01-29T05:37:20.680Z,3.78
2023-01-29T05:40:25.122Z,4.90
2023-01-29T05:43:27.780Z,4.88
2023-01-29T05:46:30.261Z,6.00
2023-01-29T05:49:32.670Z,9.63
2023-01-29T05:52:35.283Z,4.05
2023-01-29T05:55:37.757Z,3.05
2023-01-29T05:58:40.332Z,4.40
2023-01-29T06:01:42.852Z,4.93
2023-01-29T06:04:45.301Z,6.00
2023-01-29T06:07:47.791Z,5.80
2023-01-29T06:10:50.530Z,6.07
2023-01-29T06:13:52.983Z,5.88
2023-01-29T06:16:55.412Z,5.10
2023-01-29T06:19:57.873Z,8.88
2023-01-29T06:23:00.544Z,4.68
2023-01-29T06:26:05.966Z,12.80
2023-01-29T06:29:08.499Z,6.85
2023-01-29T06:32:11.007Z,5.33
2023-01-29T06:35:13.837Z,4.60
2023-01-29T06:38:16.262Z,4.13
2023-01-29T06:41:19.690Z,3.38
2023-01-29T06:44:22.151Z,5.05
2023-01-29T06:47:25.124Z,5.10
2023-01-29T06:50:27.537Z,5.70
2023-01-29T06:53:30.564Z,7.60
2023-01-29T06:56:33.025Z,6.75
2023-01-29T06:59:35.396Z,4.13
2023-01-29T07:02:37.868Z,3.67
2023-01-29T07:05:40.369Z,3.63
2023-01-29T07:08:42.821Z,4.43
2023-01-29T07:11:45.248Z,3.60
2023-01-29T07:14:47.803Z,2.72
2023-01-29T07:18:00.701Z,3.13
2023-01-29T07:21:07.243Z,3.40
2023-01-29T07:24:10.061Z,4.90
2023-01-29T07:27:12.464Z,6.40
2023-01-29T07:30:16.180Z,5.63
2023-01-29T07:33:18.956Z,2.90
2023-01-29T07:36:21.528Z,3.50
2023-01-29T07:39:23.988Z,2.90
2023-01-29T07:42:26.453Z,5.65
2023-01-29T07:45:29.713Z,5.25
2023-01-29T07:48:32.140Z,9.07
2023-01-29T07:51:34.700Z,5.15
2023-01-29T07:54:37.208Z,12.00
2023-01-29T07:57:39.658Z,12.75
2023-01-29T08:00:42.584Z,9.23
2023-01-29T08:03:45.089Z,11.07
2023-01-29T08:06:47.466Z,7.45
2023-01-29T08:09:50.690Z,8.77
2023-01-29T08:12:57.595Z,5.20
2023-01-29T08:16:04.392Z,7.20
2023-01-29T08:19:06.825Z,5.27
2023-01-29T08:22:09.589Z,10.40
2023-01-29T08:25:12.407Z,10.90
2023-01-29T08:28:14.879Z,7.82
2023-01-29T08:31:18.255Z,4.85
2023-01-29T08:34:20.795Z,7.47
2023-01-29T08:37:23.240Z,9.45
2023-01-29T08:40:26.590Z,7.63
2023-01-29T08:43:29.098Z,8.18
2023-01-29T08:46:32.298Z,5.43
2023-01-29T08:49:34.728Z,6.70
2023-01-29T08:52:37.256Z,5.65
2023-01-29T08:55:40.788Z,4.80
2023-01-29T08:58:43.566Z,8.65
2023-01-29T09:01:45.990Z,8.98
2023-01-29T09:04:48.688Z,7.57
2023-01-29T09:07:53.370Z,4.63
2023-01-29T09:10:59.727Z,5.65
2023-01-29T09:14:02.177Z,10.48
2023-01-29T09:17:04.669Z,13.93
2023-01-29T09:20:08.242Z,14.03
2023-01-29T09:23:11.552Z,21.52
2023-01-29T09:26:14.038Z,12.05
2023-01-29T09:29:18.191Z,15.15
2023-01-29T09:32:49.739Z,7.03
2023-01-29T09:35:43.909Z,9.90
2023-01-29T09:38:46.343Z,8.73
2023-01-29T09:42:13.568Z,4.13
2023-01-29T09:45:21.821Z,6.00
2023-01-29T09:48:26.880Z,6.38
2023-01-29T09:51:43.737Z,5.67
2023-01-29T09:54:57.813Z,5.20
2023-01-29T09:58:06.346Z,7.93
2023-01-29T10:01:32.139Z,3.92
2023-01-29T10:05:03.804Z,7.65
2023-01-29T10:08:40.345Z,6.13
2023-01-29T10:11:45.768Z,6.50
2023-01-29T10:14:57.908Z,5.93
2023-01-29T10:18:21.604Z,7.60
2023-01-29T10:21:49.830Z,5.40
2023-01-29T10:25:03.534Z,3.93
2023-01-29T10:28:15.832Z,4.22
2023-01-29T10:31:28.069Z,9.15
2023-01-29T10:34:39.272Z,5.03
2023-01-29T10:37:42.583Z,8.30
2023-01-29T10:41:11.457Z,9.00
2023-01-29T10:44:36.491Z,9.95
2023-01-29T10:47:52.701Z,8.38
2023-01-29T10:51:01.118Z,8.35
2023-01-29T10:54:13.715Z,9.60
2023-01-29T10:57:27.875Z,7.63
2023-01-29T11:00:39.571Z,10.35
2023-01-29T11:03:42.222Z,10.10
2023-01-29T11:06:44.826Z,8.10
2023-01-29T11:09:57.998Z,8.30
2023-01-29T11:13:00.564Z,6.27
2023-01-29T11:16:05.301Z,4.05
2023-01-29T11:19:07.881Z,7.13
2023-01-29T11:22:20.105Z,6.88
2023-01-29T11:25:22.707Z,8.40
2023-01-29T11:28:57.229Z,3.27
2023-01-29T11:32:01.012Z,35.30
2023-01-29T11:35:17.988Z,12.73
2023-01-29T11:38:28.705Z,10.07
2023-01-29T11:41:43.397Z,32.35
2023-01-29T11:44:45.794Z,19.23
2023-01-29T11:47:49.627Z,15.00
2023-01-29T11:51:05.539Z,15.30
2023-01-29T11:54:16.079Z,10.68
2023-01-29T11:57:34.699Z,7.05
2023-01-29T12:00:39.374Z,9.63
2023-01-29T12:03:44.897Z,6.75
2023-01-29T12:06:50.518Z,14.00
2023-01-29T12:09:56.117Z,10.82
2023-01-29T12:13:10.986Z,16.25
2023-01-29T12:16:18.921Z,14.47
2023-01-29T12:19:21.387Z,15.48
2023-01-29T12:22:34.754Z,15.68
2023-01-29T12:25:46.632Z,23.15
2023-01-29T12:29:14.710Z,9.02
2023-01-29T12:32:36.974Z,20.70
2023-01-29T12:35:44.792Z,13.90
2023-01-29T12:38:47.378Z,25.45
2023-01-29T12:42:25.496Z,22.23
2023-01-29T12:45:28.486Z,15.70
2023-01-29T12:48:34.314Z,9.43
2023-01-29T12:51:40.912Z,7.90
2023-01-29T12:54:49.968Z,7.53
2023-01-29T12:58:09.417Z,10.10
2023-01-29T13:01:17.680Z,9.30
2023-01-29T13:04:41.613Z,17.03
2023-01-29T13:07:50.072Z,14.45
2023-01-29T13:10:54.657Z,14.52
2023-01-29T13:14:01.699Z,11.10
2023-01-29T13:17:35.920Z,11.60
2023-01-29T13:20:39.498Z,14.87
2023-01-29T13:24:05.459Z,12.00
2023-01-29T13:27:27.015Z,27.63
2023-01-29T13:30:33.185Z,12.10
2023-01-29T13:33:35.817Z,15.38
2023-01-29T13:36:43.353Z,19.03
2023-01-29T13:39:53.315Z,13.23
2023-01-29T13:42:58.946Z,12.13
2023-01-29T13:46:11.564Z,13.98
2023-01-29T13:49:40.879Z,10.63
2023-01-29T13:52:45.715Z,20.80
2023-01-29T13:55:48.885Z,29.50
2023-01-29T13:58:55.296Z,17.90
2023-01-29T14:02:03.887Z,19.75
2023-01-29T14:05:31.396Z,40.33
2023-01-29T14:08:43.518Z,33.60
2023-01-29T14:11:50.056Z,24.63
2023-01-29T14:14:56.701Z,37.92
2023-01-29T14:18:19.974Z,25.60
2023-01-29T14:21:27.672Z,28.45
2023-01-29T14:24:31.057Z,30.27
2023-01-29T14:27:35.185Z,24.05
2023-01-29T14:30:38.364Z,18.90
2023-01-29T14:33:43.409Z,24.17
2023-01-29T14:36:47.906Z,18.83
2023-01-29T14:39:57.825Z,19.07
2023-01-29T14:43:06.323Z,17.42
2023-01-29T14:46:44.693Z,15.98
2023-01-29T14:49:50.303Z,18.42
2023-01-29T14:52:54.100Z,15.05
2023-01-29T14:56:00.905Z,18.00
2023-01-29T14:59:22.234Z,17.83
2023-01-29T15:02:33.766Z,17.40
2023-01-29T15:05:37.437Z,19.52
2023-01-29T15:08:44.006Z,14.68
2023-01-29T15:11:54.868Z,13.87
2023-01-29T15:15:05.724Z,20.38
2023-01-29T15:18:09.630Z,39.13
2023-01-29T15:21:17.184Z,32.78
2023-01-29T15:24:19.602Z,27.88
2023-01-29T15:27:22.158Z,30.20
2023-01-29T15:30:32.674Z,20.85
2023-01-29T15:33:38.616Z,23.63
2023-01-29T15:36:41.152Z,24.05
2023-01-29T15:39:44.124Z,27.83
2023-01-29T15:42:48.640Z,24.47
2023-01-29T15:45:52.173Z,22.40
2023-01-29T15:48:57.614Z,18.38
2023-01-29T15:52:04.881Z,29.00
2023-01-29T15:55:08.609Z,47.97
2023-01-29T15:58:19.427Z,26.23
2023-01-29T16:01:22.530Z,22.27
2023-01-29T16:04:28.928Z,23.55
2023-01-29T16:07:31.862Z,24.70
2023-01-29T16:10:34.995Z,21.80
2023-01-29T16:13:41.095Z,25.60
2023-01-29T16:16:49.082Z,23.92
2023-01-29T16:19:59.606Z,30.10
2023-01-29T16:23:02.712Z,22.35
2023-01-29T16:26:07.471Z,16.65
2023-01-29T16:29:13.185Z,17.97
2023-01-29T16:32:16.428Z,18.25
2023-01-29T16:35:19.494Z,17.92
2023-01-29T16:38:31.242Z,31.92
2023-01-29T16:41:38.267Z,34.45
2023-01-29T16:45:20.116Z,27.80
2023-01-29T16:48:27.798Z,36.00
2023-01-29T16:51:38.540Z,45.85
2023-01-29T16:54:44.273Z,38.42
2023-01-29T16:57:51.522Z,38.08
2023-01-29T17:00:56.294Z,38.60
2023-01-29T17:04:03.140Z,31.20
2023-01-29T17:07:05.884Z,25.48
2023-01-29T17:10:15.394Z,18.58
2023-01-29T17:13:30.328Z,17.83
2023-01-29T17:16:35.618Z,16.47
2023-01-29T17:19:39.254Z,15.50
2023-01-29T17:22:42.993Z,14.05
2023-01-29T17:25:46.730Z,22.35
2023-01-29T17:28:50.304Z,22.73
2023-01-29T17:31:53.292Z,14.33
2023-01-29T17:34:56.064Z,17.05
2023-01-29T17:37:59.295Z,17.88
2023-01-29T17:41:27.163Z,18.80
2023-01-29T17:44:29.794Z,21.92
2023-01-29T17:47:32.967Z,21.70
2023-01-29T17:50:36.452Z,16.63
2023-01-29T17:53:47.343Z,20.15
2023-01-29T17:56:50.867Z,16.83
2023-01-29T17:59:53.810Z,22.92
2023-01-29T18:02:58.029Z,17.17
2023-01-29T18:06:00.765Z,25.52
2023-01-29T18:09:03.955Z,18.52
2023-01-29T18:12:10.106Z,22.58
2023-01-29T18:15:14.349Z,17.23
2023-01-29T18:18:22.193Z,17.30
2023-01-29T18:21:24.895Z,22.75
2023-01-29T18:24:28.054Z,21.05
2023-01-29T18:27:30.424Z,21.67
2023-01-29T18:30:33.593Z,18.58
2023-01-29T18:33:36.485Z,26.87
2023-01-29T18:36:38.929Z,32.85
2023-01-29T18:39:41.515Z,21.58
2023-01-29T18:42:45.949Z,22.25
2023-01-29T18:45:49.519Z,23.50
2023-01-29T18:48:52.359Z,19.20
2023-01-29T18:51:55.196Z,27.10
2023-01-29T18:54:57.839Z,17.70
2023-01-29T18:58:28.408Z,21.55
2023-01-29T19:01:23.795Z,22.13
2023-01-29T19:04:26.867Z,22.07
2023-01-29T19:07:29.685Z,23.25
2023-01-29T19:10:32.777Z,26.80
2023-01-29T19:13:36.252Z,22.58
2023-01-29T19:16:38.905Z,20.73
2023-01-29T19:19:41.424Z,20.90
2023-01-29T19:22:44.455Z,27.40
2023-01-29T19:25:47.498Z,23.13
2023-01-29T19:28:51.077Z,18.08
2023-01-29T19:31:54.102Z,15.25
2023-01-29T19:34:57.863Z,13.67
2023-01-29T19:38:01.165Z,14.50
2023-01-29T19:41:05.365Z,14.98
2023-01-29T19:44:08.121Z,18.83
2023-01-29T19:47:10.929Z,12.30
2023-01-29T19:50:13.695Z,19.53
2023-01-29T19:53:16.376Z,22.13
2023-01-29T19:56:19.959Z,14.10
2023-01-29T19:59:22.882Z,15.88
2023-01-29T20:02:25.959Z,13.15
2023-01-29T20:05:28.347Z,17.23
2023-01-29T20:08:31.576Z,18.95
2023-01-29T20:11:34.254Z,18.48
2023-01-29T20:14:36.880Z,15.93
2023-01-29T20:17:39.643Z,16.38
2023-01-29T20:20:53.165Z,18.07
2023-01-29T20:23:56.289Z,17.75
2023-01-29T20:27:00.015Z,17.48
2023-01-29T20:30:02.489Z,18.42
2023-01-29T20:33:06.501Z,19.90
2023-01-29T20:36:10.937Z,20.60
2023-01-29T20:39:13.805Z,16.20
2023-01-29T20:42:16.586Z,21.15
2023-01-29T20:45:19.842Z,20.63
2023-01-29T20:48:23.047Z,21.52
2023-01-29T20:51:26.041Z,21.37
2023-01-29T20:54:30.124Z,21.63
2023-01-29T20:57:33.030Z,18.58
2023-01-29T21:00:35.992Z,19.73
2023-01-29T21:03:39.768Z,18.05
2023-01-29T21:06:43.619Z,14.97
2023-01-29T21:09:46.613Z,21.88
2023-01-29T21:12:48.985Z,24.55
2023-01-29T21:15:51.445Z,33.42
2023-01-29T21:18:57.596Z,36.63
2023-01-29T21:22:00.084Z,40.23
2023-01-29T21:25:02.588Z,32.33
2023-01-29T21:28:06.115Z,62.40
2023-01-29T21:31:10.344Z,68.88
2023-01-29T21:34:12.743Z,68.82
2023-01-29T21:37:15.360Z,44.67
2023-01-29T21:40:18.296Z,36.15
2023-01-29T21:43:20.946Z,42.13
2023-01-29T21:46:23.708Z,25.98
2023-01-29T21:49:26.654Z,22.42
2023-01-29T21:52:29.341Z,26.13
2023-01-29T21:55:32.602Z,29.40
2023-01-29T21:58:35.361Z,30.95
2023-01-29T22:01:38.836Z,32.20
2023-01-29T22:04:42.449Z,27.40
2023-01-29T22:07:44.911Z,22.43
2023-01-29T22:10:47.443Z,28.92
2023-01-29T22:13:50.059Z,26.63
2023-01-29T22:16:52.591Z,25.38
2023-01-29T22:19:55.069Z,32.63
2023-01-29T22:23:00.830Z,24.63
2023-01-29T22:26:07.360Z,26.30
2023-01-29T22:29:12.202Z,24.17
2023-01-29T22:32:15.028Z,24.33
2023-01-29T22:35:17.762Z,26.20
2023-01-29T22:38:20.317Z,24.73
2023-01-29T22:41:22.836Z,20.00
2023-01-29T22:44:25.406Z,20.33
2023-01-29T22:47:27.821Z,23.95
2023-01-29T22:50:30.318Z,29.80
2023-01-29T22:53:32.836Z,25.33
2023-01-29T22:56:35.270Z,23.63
2023-01-29T22:59:37.916Z,28.63
2023-01-29T23:02:40.479Z,24.08
2023-01-29T23:05:42.963Z,29.08
2023-01-29T23:08:45.740Z,28.10
2023-01-29T23:11:48.281Z,51.58
2023-01-29T23:14:50.713Z,57.97
2023-01-29T23:17:53.151Z,56.78
2023-01-29T23:20:58.521Z,48.95
2023-01-29T23:24:01.389Z,40.03
2023-01-29T23:27:16.128Z,35.47
2023-01-29T23:30:18.999Z,35.90
2023-01-29T23:33:21.742Z,56.78
2023-01-29T23:36:24.220Z,38.13
2023-01-29T23:39:26.669Z,38.33
2023-01-29T23:42:29.188Z,39.65
2023-01-29T23:45:31.637Z,40.58
2023-01-29T23:48:34.089Z,41.17
2023-01-29T23:51:36.672Z,40.13
2023-01-29T23:54:39.093Z,34.97
2023-01-29T23:57:41.543Z,41.15
